Time;durP1;ratioP1;P1;durP2;ratioP2;P2;SDS_P1;SDS_P2;PMS_P1;PMS_P2;Temp;Humidity;BMP_temperature;BMP_pressure;BME280_temperature;BME280_humidity;BME280_pressure;Samples;Min_cycle;Max_cycle;Signal;HPM_P1;HPM_P2
2021/09/27 00:00:21;;;;;;;24.38;19.30;;;;;;;;;;5024736;28;20714;-75
2021/09/27 00:02:47;;;;;;;32.20;22.60;;;;;;;;;;5032986;28;20238;-76
2021/09/27 00:05:15;;;;;;;33.10;23.35;;;;;;;;;;5024285;28;20193;-76
2021/09/27 00:07:41;;;;;;;27.75;22.13;;;;;;;;;;5034200;28;20287;-76
2021/09/27 00:10:09;;;;;;;30.77;21.77;;;;;;;;;;5023692;28;20667;-76
2021/09/27 00:12:35;;;;;;;31.52;24.27;;;;;;;;;;5028342;28;20210;-76
2021/09/27 00:15:01;;;;;;;33.30;23.27;;;;;;;;;;5032358;28;20185;-76
2021/09/27 00:17:27;;;;;;;32.03;24.58;;;;;;;;;;5036162;28;20201;-76
2021/09/27 00:19:52;;;;;;;36.20;25.85;;;;;;;;;;5031471;28;20202;-76
2021/09/27 00:22:17;;;;;;;36.38;25.55;;;;;;;;;;5023860;28;20186;-76
2021/09/27 00:24:43;;;;;;;34.58;24.88;;;;;;;;;;5027961;28;20200;-76
2021/09/27 00:27:09;;;;;;;32.28;23.23;;;;;;;;;;5022291;28;20201;-76
2021/09/27 00:29:34;;;;;;;34.78;23.42;;;;;;;;;;5029222;28;20292;-76
2021/09/27 00:32:00;;;;;;;35.10;25.00;;;;;;;;;;5023927;28;20186;-76
2021/09/27 00:34:25;;;;;;;31.80;22.73;;;;;;;;;;5028507;28;20228;-76
2021/09/27 00:36:50;;;;;;;33.90;24.40;;;;;;;;;;5025718;28;20213;-76
2021/09/27 00:39:16;;;;;;;32.67;22.50;;;;;;;;;;5027288;28;20287;-76
2021/09/27 00:41:42;;;;;;;34.60;25.35;;;;;;;;;;5023629;28;20201;-76
2021/09/27 00:44:07;;;;;;;31.45;23.80;;;;;;;;;;5029328;28;20186;-76
2021/09/27 00:46:32;;;;;;;36.33;24.67;;;;;;;;;;5029821;28;20173;-76
2021/09/27 00:49:00;;;;;;;36.63;26.25;;;;;;;;;;5021126;28;20194;-76
2021/09/27 00:51:31;;;;;;;33.67;23.98;;;;;;;;;;5031966;28;20178;-76
2021/09/27 00:54:07;;;;;;;43.47;27.25;;;;;;;;;;5022109;28;20190;-76
2021/09/27 00:56:40;;;;;;;37.13;25.92;;;;;;;;;;5030615;28;20181;-76
2021/09/27 00:59:08;;;;;;;35.78;25.30;;;;;;;;;;5021921;28;20521;-76
2021/09/27 01:01:33;;;;;;;35.15;25.20;;;;;;;;;;5030848;28;20216;-76
2021/09/27 01:03:59;;;;;;;34.30;25.92;;;;;;;;;;5021345;28;20286;-76
2021/09/27 01:06:33;;;;;;;33.55;23.80;;;;;;;;;;5027525;28;20372;-76
2021/09/27 01:09:36;;;;;;;34.47;25.85;;;;;;;;;;5025613;28;20300;-76
2021/09/27 01:12:33;;;;;;;35.90;24.58;;;;;;;;;;5026850;28;20350;-76
2021/09/27 01:15:34;;;;;;;40.80;26.48;;;;;;;;;;5019267;28;20285;-76
2021/09/27 01:18:05;;;;;;;33.72;23.75;;;;;;;;;;5033058;28;20629;-76
2021/09/27 01:21:06;;;;;;;37.55;23.90;;;;;;;;;;5021363;28;20206;-76
2021/09/27 01:24:03;;;;;;;35.78;24.77;;;;;;;;;;5028045;28;20247;-76
2021/09/27 01:26:47;;;;;;;34.53;25.77;;;;;;;;;;5028243;28;20185;-77
2021/09/27 01:29:34;;;;;;;29.27;23.08;;;;;;;;;;5020052;28;20525;-76
2021/09/27 01:32:29;;;;;;;35.80;25.05;;;;;;;;;;5028190;28;20259;-77
2021/09/27 01:35:16;;;;;;;36.03;24.58;;;;;;;;;;5023388;28;20673;-77
2021/09/27 01:38:10;;;;;;;39.88;26.48;;;;;;;;;;5030554;28;20197;-77
2021/09/27 01:41:22;;;;;;;40.90;26.65;;;;;;;;;;5023438;28;20213;-77
2021/09/27 01:44:11;;;;;;;37.70;25.52;;;;;;;;;;5008380;28;20581;-77
2021/09/27 01:47:01;;;;;;;39.78;28.35;;;;;;;;;;5024574;28;20592;-76
2021/09/27 01:49:32;;;;;;;28.75;22.42;;;;;;;;;;5030556;28;20239;-77
2021/09/27 01:52:07;;;;;;;34.75;24.73;;;;;;;;;;5022941;28;20209;-77
2021/09/27 01:54:37;;;;;;;37.72;26.52;;;;;;;;;;5028813;28;20189;-77
2021/09/27 01:57:17;;;;;;;37.83;27.08;;;;;;;;;;5022641;28;20298;-77
2021/09/27 01:59:48;;;;;;;39.15;27.15;;;;;;;;;;5027731;28;20571;-77
2021/09/27 02:02:21;;;;;;;43.45;28.67;;;;;;;;;;5022920;28;20560;-77
2021/09/27 02:04:58;;;;;;;42.67;28.65;;;;;;;;;;5029079;28;20609;-77
2021/09/27 02:07:27;;;;;;;41.33;28.77;;;;;;;;;;5022954;28;20225;-77
2021/09/27 02:10:07;;;;;;;47.45;28.02;;;;;;;;;;5029336;28;20197;-77
2021/09/27 02:12:40;;;;;;;40.92;27.10;;;;;;;;;;5023642;28;20205;-77
2021/09/27 02:15:17;;;;;;;35.92;24.52;;;;;;;;;;5029244;28;20190;-77
2021/09/27 02:17:59;;;;;;;36.78;25.35;;;;;;;;;;5021026;28;20236;-77
2021/09/27 02:20:49;;;;;;;44.75;28.48;;;;;;;;;;5028664;28;20219;-77
2021/09/27 02:23:24;;;;;;;44.03;28.05;;;;;;;;;;5020906;28;20197;-77
2021/09/27 02:25:50;;;;;;;38.65;27.05;;;;;;;;;;5029996;28;20224;-78
2021/09/27 02:28:21;;;;;;;40.40;28.50;;;;;;;;;;5020086;28;20208;-76
2021/09/27 02:31:01;;;;;;;41.80;28.30;;;;;;;;;;5029147;28;20182;-77
2021/09/27 02:33:50;;;;;;;41.20;28.00;;;;;;;;;;5022751;28;20200;-77
2021/09/27 02:36:26;;;;;;;41.03;27.10;;;;;;;;;;5030974;28;20194;-77
2021/09/27 02:39:25;;;;;;;42.85;27.92;;;;;;;;;;5021465;28;20194;-77
2021/09/27 02:42:14;;;;;;;38.00;26.55;;;;;;;;;;5027771;28;20358;-77
2021/09/27 02:44:40;;;;;;;41.17;27.13;;;;;;;;;;5019585;28;20239;-77
2021/09/27 02:47:09;;;;;;;38.42;25.33;;;;;;;;;;5027745;28;20190;-77
2021/09/27 02:49:45;;;;;;;43.03;28.27;;;;;;;;;;5019409;28;20826;-77
2021/09/27 02:52:15;;;;;;;41.45;27.60;;;;;;;;;;5026821;28;20185;-77
2021/09/27 02:54:51;;;;;;;38.70;26.67;;;;;;;;;;5020027;28;20708;-77
2021/09/27 02:57:36;;;;;;;39.30;27.73;;;;;;;;;;5025616;28;20209;-77
2021/09/27 03:00:12;;;;;;;38.90;27.27;;;;;;;;;;5020531;28;20304;-77
2021/09/27 03:02:53;;;;;;;41.45;27.55;;;;;;;;;;5027085;28;20669;-77
2021/09/27 03:05:46;;;;;;;38.03;26.52;;;;;;;;;;5017051;28;20193;-77
2021/09/27 03:08:26;;;;;;;44.60;28.25;;;;;;;;;;5024984;28;20887;-77
2021/09/27 03:11:42;;;;;;;42.00;27.80;;;;;;;;;;5017524;28;20558;-77
2021/09/27 03:14:36;;;;;;;45.75;29.60;;;;;;;;;;5029031;28;20205;-77
2021/09/27 03:17:13;;;;;;;38.05;25.30;;;;;;;;;;5025147;28;20202;-77
2021/09/27 03:19:52;;;;;;;45.13;29.48;;;;;;;;;;5032744;28;20565;-77
2021/09/27 03:22:32;;;;;;;42.42;28.25;;;;;;;;;;5034651;28;20204;-77
2021/09/27 03:25:10;;;;;;;35.10;23.60;;;;;;;;;;5032711;28;20677;-77
2021/09/27 03:28:03;;;;;;;42.08;27.55;;;;;;;;;;5034959;28;20272;-77
2021/09/27 03:31:00;;;;;;;46.78;28.45;;;;;;;;;;5026402;28;20553;-77
2021/09/27 03:33:39;;;;;;;46.13;29.38;;;;;;;;;;5035852;28;20674;-77
2021/09/27 03:36:41;;;;;;;48.90;29.17;;;;;;;;;;5026379;28;20194;-77
2021/09/27 03:39:15;;;;;;;50.55;28.95;;;;;;;;;;5034188;28;20211;-77
2021/09/27 03:41:47;;;;;;;43.70;28.17;;;;;;;;;;5024745;28;20287;-77
2021/09/27 03:44:29;;;;;;;46.22;29.80;;;;;;;;;;5034913;28;20182;-77
2021/09/27 03:47:07;;;;;;;50.85;30.77;;;;;;;;;;5027369;28;20198;-77
2021/09/27 03:49:55;;;;;;;48.15;29.90;;;;;;;;;;5034046;28;21419;-76
2021/09/27 03:52:35;;;;;;;45.22;30.23;;;;;;;;;;5027107;28;20205;-77
2021/09/27 03:55:14;;;;;;;48.90;31.00;;;;;;;;;;5031551;28;20366;-77
2021/09/27 03:58:24;;;;;;;50.70;30.23;;;;;;;;;;5026039;28;20213;-77
2021/09/27 04:01:02;;;;;;;48.42;29.92;;;;;;;;;;5035612;28;20639;-77
2021/09/27 04:03:51;;;;;;;48.13;30.35;;;;;;;;;;5027447;28;20665;-76
2021/09/27 04:06:44;;;;;;;45.33;31.20;;;;;;;;;;5032959;28;20259;-77
2021/09/27 04:09:23;;;;;;;46.10;29.85;;;;;;;;;;5027392;28;20672;-77
2021/09/27 04:12:07;;;;;;;43.63;26.70;;;;;;;;;;5036253;28;20252;-77
2021/09/27 04:14:49;;;;;;;50.47;29.13;;;;;;;;;;5026044;28;20202;-77
2021/09/27 04:17:42;;;;;;;55.50;29.45;;;;;;;;;;5033778;28;20178;-76
2021/09/27 04:20:13;;;;;;;52.55;30.80;;;;;;;;;;5027596;28;20197;-77
2021/09/27 04:22:43;;;;;;;50.58;29.58;;;;;;;;;;5036212;28;20781;-77
2021/09/27 04:25:19;;;;;;;50.58;29.75;;;;;;;;;;5023499;28;20177;-77
2021/09/27 04:28:02;;;;;;;46.00;29.63;;;;;;;;;;5028249;28;20196;-77
2021/09/27 04:31:17;;;;;;;50.78;30.08;;;;;;;;;;5020792;28;20228;-77
2021/09/27 04:34:13;;;;;;;46.35;28.17;;;;;;;;;;4992815;28;20207;-77
2021/09/27 04:36:43;;;;;;;45.78;27.83;;;;;;;;;;5046283;28;20199;-77
2021/09/27 04:39:18;;;;;;;47.35;30.08;;;;;;;;;;5022238;28;20802;-77
2021/09/27 04:41:43;;;;;;;45.08;29.08;;;;;;;;;;5030730;28;20196;-77
2021/09/27 04:44:46;;;;;;;55.03;29.83;;;;;;;;;;5028466;28;20609;-77
2021/09/27 04:47:17;;;;;;;44.92;30.10;;;;;;;;;;5029915;28;20197;-77
2021/09/27 04:50:03;;;;;;;46.30;29.13;;;;;;;;;;5024616;28;20236;-77
2021/09/27 04:52:38;;;;;;;50.85;30.13;;;;;;;;;;5029491;28;20271;-77
2021/09/27 04:55:22;;;;;;;47.92;29.02;;;;;;;;;;5022199;28;20276;-77
2021/09/27 04:58:15;;;;;;;45.10;28.90;;;;;;;;;;5027142;28;21505;-76
2021/09/27 05:01:16;;;;;;;46.90;30.02;;;;;;;;;;5021933;28;20295;-76
2021/09/27 05:03:58;;;;;;;47.95;29.80;;;;;;;;;;5028107;28;20184;-76
2021/09/27 05:06:41;;;;;;;39.10;26.40;;;;;;;;;;5019185;28;20238;-76
2021/09/27 05:09:23;;;;;;;37.67;25.35;;;;;;;;;;5028446;28;20208;-76
2021/09/27 05:12:11;;;;;;;47.30;28.70;;;;;;;;;;5022919;28;20255;-76
2021/09/27 05:14:45;;;;;;;45.67;28.40;;;;;;;;;;5036435;28;20185;-76
2021/09/27 05:17:13;;;;;;;43.70;29.85;;;;;;;;;;5019032;28;20189;-76
2021/09/27 05:20:06;;;;;;;46.42;27.33;;;;;;;;;;4696461;28;10001062;-76
2021/09/27 05:22:58;;;;;;;43.38;28.48;;;;;;;;;;5016912;28;20819;-76
2021/09/27 05:25:32;;;;;;;36.65;23.05;;;;;;;;;;5024144;28;20629;-76
2021/09/27 05:28:36;;;;;;;42.33;27.52;;;;;;;;;;5016108;28;20189;-76
2021/09/27 05:31:12;;;;;;;42.85;28.00;;;;;;;;;;5024979;28;20263;-76
2021/09/27 05:34:05;;;;;;;43.53;28.67;;;;;;;;;;5021417;28;20250;-75
2021/09/27 05:36:50;;;;;;;45.47;29.60;;;;;;;;;;5025324;28;20628;-75
2021/09/27 05:39:37;;;;;;;48.60;29.42;;;;;;;;;;5018280;28;20198;-75
2021/09/27 05:42:22;;;;;;;46.03;28.75;;;;;;;;;;5027393;28;20684;-75
2021/09/27 05:45:01;;;;;;;42.70;27.15;;;;;;;;;;5027855;28;20729;-75
2021/09/27 05:47:34;;;;;;;40.00;27.13;;;;;;;;;;5030170;28;20200;-75
2021/09/27 05:50:12;;;;;;;40.53;27.33;;;;;;;;;;5036523;28;20700;-76
2021/09/27 05:53:05;;;;;;;41.60;26.88;;;;;;;;;;5030643;28;20685;-75
2021/09/27 05:55:48;;;;;;;41.70;29.50;;;;;;;;;;5025927;28;20177;-75
2021/09/27 05:58:42;;;;;;;42.80;29.70;;;;;;;;;;5026624;28;20286;-76
2021/09/27 06:01:23;;;;;;;44.97;27.30;;;;;;;;;;5029718;28;20202;-76
2021/09/27 06:04:22;;;;;;;38.80;26.67;;;;;;;;;;5027878;28;20198;-75
2021/09/27 06:06:53;;;;;;;37.67;26.67;;;;;;;;;;5026603;28;20283;-76
2021/09/27 06:09:19;;;;;;;39.05;25.63;;;;;;;;;;5020056;28;20202;-76
2021/09/27 06:12:11;;;;;;;37.40;24.60;;;;;;;;;;5029874;28;20190;-76
2021/09/27 06:14:36;;;;;;;37.97;25.67;;;;;;;;;;5019483;28;20204;-76
2021/09/27 06:17:39;;;;;;;40.63;26.85;;;;;;;;;;5027696;28;20240;-75
2021/09/27 06:20:33;;;;;;;44.97;30.70;;;;;;;;;;5026014;28;20440;-76
2021/09/27 06:23:27;;;;;;;37.28;24.90;;;;;;;;;;5026984;28;20199;-76
2021/09/27 06:26:08;;;;;;;35.30;25.08;;;;;;;;;;5021636;28;20194;-76
2021/09/27 06:28:36;;;;;;;35.22;24.15;;;;;;;;;;5029325;28;20200;-75
2021/09/27 06:31:07;;;;;;;34.72;24.10;;;;;;;;;;5019763;28;20235;-75
2021/09/27 06:33:42;;;;;;;36.97;23.52;;;;;;;;;;5026659;28;20668;-76
2021/09/27 06:36:12;;;;;;;37.22;23.52;;;;;;;;;;5019455;28;20669;-76
2021/09/27 06:38:38;;;;;;;32.58;23.23;;;;;;;;;;5025438;28;20892;-75
2021/09/27 06:41:08;;;;;;;33.17;23.02;;;;;;;;;;5018936;28;20209;-75
2021/09/27 06:43:33;;;;;;;33.97;23.00;;;;;;;;;;5025969;28;20195;-76
2021/09/27 06:45:58;;;;;;;31.25;23.08;;;;;;;;;;5020830;28;20181;-76
2021/09/27 06:48:24;;;;;;;38.63;23.15;;;;;;;;;;5019604;28;20201;-76
2021/09/27 06:50:51;;;;;;;31.73;23.23;;;;;;;;;;5018841;28;20499;-75
2021/09/27 06:53:16;;;;;;;33.35;23.80;;;;;;;;;;5024264;28;20216;-76
2021/09/27 06:55:42;;;;;;;35.78;24.00;;;;;;;;;;5024628;28;20202;-76
2021/09/27 06:58:08;;;;;;;35.65;24.35;;;;;;;;;;5017801;28;20553;-76
2021/09/27 07:00:33;;;;;;;33.50;22.98;;;;;;;;;;5026764;28;20317;-76
2021/09/27 07:02:59;;;;;;;32.75;21.73;;;;;;;;;;5015899;28;20194;-76
2021/09/27 07:05:24;;;;;;;33.63;22.95;;;;;;;;;;5025659;28;20200;-75
2021/09/27 07:07:50;;;;;;;29.42;21.20;;;;;;;;;;5017415;28;20307;-77
2021/09/27 07:10:21;;;;;;;29.73;20.80;;;;;;;;;;5024290;28;20204;-75
2021/09/27 07:12:46;;;;;;;27.90;21.70;;;;;;;;;;5019000;28;20301;-75
2021/09/27 07:15:12;;;;;;;27.63;20.25;;;;;;;;;;5026483;28;20665;-75
2021/09/27 07:17:38;;;;;;;27.30;20.13;;;;;;;;;;5015903;28;21156;-75
2021/09/27 07:20:10;;;;;;;34.03;21.15;;;;;;;;;;5026225;28;20193;-75
2021/09/27 07:22:36;;;;;;;25.45;19.65;;;;;;;;;;5017021;28;20198;-76
2021/09/27 07:25:02;;;;;;;27.08;20.17;;;;;;;;;;5027997;28;20185;-75
2021/09/27 07:27:27;;;;;;;25.15;18.73;;;;;;;;;;5028937;28;20196;-74
2021/09/27 07:29:53;;;;;;;25.88;19.10;;;;;;;;;;5017825;28;20186;-75
2021/09/27 07:32:18;;;;;;;26.25;18.27;;;;;;;;;;5028228;28;20190;-74
2021/09/27 07:34:43;;;;;;;23.88;18.00;;;;;;;;;;5013186;28;20895;-75
2021/09/27 07:37:09;;;;;;;24.98;18.38;;;;;;;;;;5028460;28;20628;-75
2021/09/27 07:39:34;;;;;;;24.42;17.25;;;;;;;;;;5019640;28;21043;-75
2021/09/27 07:42:00;;;;;;;26.63;17.95;;;;;;;;;;5042702;28;20221;-75
2021/09/27 07:44:26;;;;;;;24.13;18.52;;;;;;;;;;5019046;28;20204;-74
2021/09/27 07:46:51;;;;;;;22.83;17.63;;;;;;;;;;5027087;28;20656;-75
2021/09/27 07:49:17;;;;;;;23.30;17.80;;;;;;;;;;5018800;28;20517;-74
2021/09/27 07:51:43;;;;;;;22.50;17.13;;;;;;;;;;5027214;28;20217;-75
2021/09/27 07:54:08;;;;;;;23.92;18.00;;;;;;;;;;5022171;28;20208;-76
2021/09/27 07:56:34;;;;;;;24.80;16.98;;;;;;;;;;5020362;28;20190;-74
2021/09/27 07:59:00;;;;;;;22.63;17.23;;;;;;;;;;5028298;28;20549;-75
2021/09/27 08:01:27;;;;;;;23.55;17.40;;;;;;;;;;5019185;28;20217;-74
2021/09/27 08:03:52;;;;;;;32.47;16.23;;;;;;;;;;5029706;28;20189;-74
2021/09/27 08:06:17;;;;;;;26.55;17.75;;;;;;;;;;5020698;28;20592;-74
2021/09/27 08:08:43;;;;;;;25.42;17.88;;;;;;;;;;5030460;28;20608;-74
2021/09/27 08:11:08;;;;;;;21.15;16.25;;;;;;;;;;5021940;28;20177;-75
2021/09/27 08:13:34;;;;;;;21.10;16.58;;;;;;;;;;5028214;28;20190;-75
2021/09/27 08:15:59;;;;;;;21.83;15.93;;;;;;;;;;5021418;28;20197;-74
2021/09/27 08:18:25;;;;;;;21.23;15.98;;;;;;;;;;5030329;28;20660;-75
2021/09/27 08:20:58;;;;;;;18.40;14.95;;;;;;;;;;5021054;28;20206;-74
2021/09/27 08:23:24;;;;;;;21.75;15.70;;;;;;;;;;5029900;28;20193;-75
2021/09/27 08:25:52;;;;;;;21.33;16.10;;;;;;;;;;5029434;28;20224;-77
2021/09/27 08:28:21;;;;;;;21.30;15.32;;;;;;;;;;5027819;28;20200;-74
2021/09/27 08:30:50;;;;;;;18.83;14.90;;;;;;;;;;5029960;28;20192;-74
2021/09/27 08:33:18;;;;;;;20.85;15.55;;;;;;;;;;5023529;28;20303;-75
2021/09/27 08:35:44;;;;;;;19.58;14.77;;;;;;;;;;5030601;28;20185;-72
2021/09/27 08:38:10;;;;;;;19.77;14.48;;;;;;;;;;5022967;28;20220;-73
2021/09/27 08:40:53;;;;;;;19.25;14.93;;;;;;;;;;5033308;28;20213;-76
2021/09/27 08:43:41;;;;;;;18.63;13.75;;;;;;;;;;5024013;28;20604;-74
2021/09/27 08:46:18;;;;;;;17.00;14.05;;;;;;;;;;5031085;28;20193;-73
2021/09/27 08:48:58;;;;;;;19.73;14.05;;;;;;;;;;5024708;28;20278;-75
2021/09/27 08:51:24;;;;;;;19.77;13.82;;;;;;;;;;5032513;28;20170;-73
2021/09/27 08:53:52;;;;;;;15.82;13.77;;;;;;;;;;5022043;28;20591;-73
2021/09/27 08:56:29;;;;;;;17.50;13.18;;;;;;;;;;5030022;28;20663;-75
2021/09/27 08:59:05;;;;;;;17.50;13.30;;;;;;;;;;5022894;28;20254;-74
2021/09/27 09:01:45;;;;;;;18.50;13.68;;;;;;;;;;5029328;28;20209;-75
2021/09/27 09:04:15;;;;;;;16.25;13.02;;;;;;;;;;5022417;28;20216;-73
2021/09/27 09:06:46;;;;;;;25.10;13.15;;;;;;;;;;5027552;28;20229;-73
2021/09/27 09:09:22;;;;;;;16.33;12.95;;;;;;;;;;5022818;28;20209;-74
2021/09/27 09:12:29;;;;;;;18.48;13.63;;;;;;;;;;5031409;28;20219;-73
2021/09/27 09:15:18;;;;;;;15.52;12.13;;;;;;;;;;5022086;28;20185;-73
2021/09/27 09:17:49;;;;;;;16.08;12.60;;;;;;;;;;5031845;28;20201;-73
2021/09/27 09:20:32;;;;;;;15.73;12.25;;;;;;;;;;5023290;28;20243;-75
2021/09/27 09:22:58;;;;;;;13.18;11.10;;;;;;;;;;5032192;28;20183;-72
2021/09/27 09:25:36;;;;;;;16.02;13.00;;;;;;;;;;5022443;28;20277;-74
2021/09/27 09:28:08;;;;;;;15.98;11.98;;;;;;;;;;5032561;28;20660;-75
2021/09/27 09:30:50;;;;;;;14.18;11.70;;;;;;;;;;5021390;28;20524;-73
2021/09/27 09:33:40;;;;;;;14.82;11.50;;;;;;;;;;5031258;28;20456;-76
2021/09/27 09:36:07;;;;;;;15.77;11.50;;;;;;;;;;5022260;28;20231;-76
2021/09/27 09:38:38;;;;;;;15.98;10.50;;;;;;;;;;5030343;28;20213;-73
2021/09/27 09:41:05;;;;;;;14.05;10.38;;;;;;;;;;5023201;28;21705;-73
2021/09/27 09:43:34;;;;;;;14.80;10.82;;;;;;;;;;5028540;28;20671;-72
2021/09/27 09:46:05;;;;;;;15.23;10.75;;;;;;;;;;5020561;28;20201;-73
2021/09/27 09:48:32;;;;;;;14.30;11.05;;;;;;;;;;5029350;28;20225;-73
2021/09/27 09:51:17;;;;;;;16.75;10.38;;;;;;;;;;5021116;28;20181;-73
2021/09/27 09:53:42;;;;;;;17.85;10.18;;;;;;;;;;5030392;28;20198;-74
2021/09/27 09:56:17;;;;;;;13.63;9.98;;;;;;;;;;5021783;28;20186;-76
2021/09/27 09:58:45;;;;;;;12.80;10.43;;;;;;;;;;5027253;28;20218;-72
2021/09/27 10:01:32;;;;;;;12.32;9.57;;;;;;;;;;5020985;28;20201;-73
2021/09/27 10:04:13;;;;;;;17.55;9.40;;;;;;;;;;5031590;28;20545;-72
2021/09/27 10:06:54;;;;;;;15.10;9.98;;;;;;;;;;5021856;28;20225;-73
2021/09/27 10:09:35;;;;;;;12.93;9.35;;;;;;;;;;5029077;28;20695;-72
2021/09/27 10:12:25;;;;;;;10.85;8.90;;;;;;;;;;5021975;28;20216;-73
2021/09/27 10:14:50;;;;;;;11.35;8.35;;;;;;;;;;5028573;28;20193;-74
2021/09/27 10:17:30;;;;;;;10.70;9.63;;;;;;;;;;5022218;28;20198;-73
2021/09/27 10:20:07;;;;;;;12.57;8.65;;;;;;;;;;5028645;28;20178;-74
2021/09/27 10:22:37;;;;;;;11.90;8.68;;;;;;;;;;5020189;28;20272;-72
2021/09/27 10:25:27;;;;;;;9.32;7.72;;;;;;;;;;5030457;28;20689;-73
2021/09/27 10:27:52;;;;;;;10.63;8.30;;;;;;;;;;5021681;28;20276;-73
2021/09/27 10:30:22;;;;;;;11.30;7.78;;;;;;;;;;5027604;28;20582;-72
2021/09/27 10:32:56;;;;;;;9.70;8.00;;;;;;;;;;5023349;28;20178;-75
2021/09/27 10:35:45;;;;;;;8.82;7.25;;;;;;;;;;5030950;28;20250;-73
2021/09/27 10:38:31;;;;;;;10.25;8.15;;;;;;;;;;5021261;28;20190;-75
2021/09/27 10:41:04;;;;;;;9.35;7.85;;;;;;;;;;5027645;28;20205;-72
2021/09/27 10:43:30;;;;;;;9.63;7.95;;;;;;;;;;5020528;28;20276;-74
2021/09/27 10:45:59;;;;;;;10.38;7.57;;;;;;;;;;5029340;28;20185;-72
2021/09/27 10:48:26;;;;;;;11.73;7.88;;;;;;;;;;5026043;28;20571;-72
2021/09/27 10:50:59;;;;;;;10.38;7.90;;;;;;;;;;5029205;28;20190;-72
2021/09/27 10:53:51;;;;;;;10.05;8.18;;;;;;;;;;5027785;28;20269;-73
2021/09/27 10:56:39;;;;;;;10.40;7.90;;;;;;;;;;5029613;28;20670;-72
2021/09/27 10:59:12;;;;;;;12.10;8.13;;;;;;;;;;5019900;28;20209;-72
2021/09/27 11:01:38;;;;;;;10.60;8.07;;;;;;;;;;5030938;28;20232;-73
2021/09/27 11:04:12;;;;;;;8.82;7.22;;;;;;;;;;5029548;28;20669;-73
2021/09/27 11:06:44;;;;;;;12.32;7.13;;;;;;;;;;5020797;28;20237;-71
2021/09/27 11:09:24;;;;;;;9.60;6.85;;;;;;;;;;5029336;28;20528;-71
2021/09/27 11:12:12;;;;;;;9.73;7.70;;;;;;;;;;5020245;28;20185;-72
2021/09/27 11:14:46;;;;;;;11.35;7.28;;;;;;;;;;5028256;28;20182;-71
2021/09/27 11:17:11;;;;;;;8.88;6.25;;;;;;;;;;5018149;28;20192;-72
2021/09/27 11:19:40;;;;;;;11.13;6.68;;;;;;;;;;5028677;28;20209;-72
2021/09/27 11:22:18;;;;;;;10.38;6.32;;;;;;;;;;5019745;28;20213;-71
2021/09/27 11:24:43;;;;;;;8.75;6.95;;;;;;;;;;5029933;28;20207;-73
2021/09/27 11:27:11;;;;;;;9.80;6.80;;;;;;;;;;5019131;28;20629;-72
2021/09/27 11:29:37;;;;;;;11.52;6.85;;;;;;;;;;5027539;28;20784;-71
2021/09/27 11:32:17;;;;;;;10.85;6.35;;;;;;;;;;5020441;28;20181;-73
2021/09/27 11:35:00;;;;;;;7.43;5.88;;;;;;;;;;5037177;28;20192;-74
2021/09/27 11:37:31;;;;;;;9.60;6.07;;;;;;;;;;5022065;28;20203;-72
2021/09/27 11:40:11;;;;;;;8.95;6.88;;;;;;;;;;5031288;28;20629;-72
2021/09/27 11:42:36;;;;;;;7.78;5.95;;;;;;;;;;5024445;28;20724;-71
2021/09/27 11:45:09;;;;;;;9.18;6.43;;;;;;;;;;5029855;28;20185;-71
2021/09/27 11:47:40;;;;;;;9.82;6.68;;;;;;;;;;5023941;28;20320;-72
2021/09/27 11:50:13;;;;;;;12.13;6.40;;;;;;;;;;5032514;28;20228;-71
2021/09/27 11:52:54;;;;;;;8.48;5.68;;;;;;;;;;5024625;28;20231;-72
2021/09/27 11:55:28;;;;;;;10.40;6.68;;;;;;;;;;5033359;28;20189;-71
2021/09/27 11:58:01;;;;;;;10.10;5.85;;;;;;;;;;5025227;28;20244;-72
2021/09/27 12:00:36;;;;;;;8.43;6.22;;;;;;;;;;5031792;28;20796;-72
2021/09/27 12:03:11;;;;;;;8.73;6.45;;;;;;;;;;5020706;28;20185;-71
2021/09/27 12:06:01;;;;;;;10.05;6.32;;;;;;;;;;5030129;28;21455;-71
2021/09/27 12:08:29;;;;;;;10.13;6.50;;;;;;;;;;5023715;28;20213;-72
2021/09/27 12:10:59;;;;;;;10.75;6.70;;;;;;;;;;5032613;28;20268;-71
2021/09/27 12:13:34;;;;;;;10.23;6.10;;;;;;;;;;5022041;28;20197;-73
2021/09/27 12:16:02;;;;;;;9.50;6.53;;;;;;;;;;5032349;28;20186;-70
2021/09/27 12:18:59;;;;;;;8.27;6.03;;;;;;;;;;5022989;28;20390;-72
2021/09/27 12:21:29;;;;;;;9.38;6.15;;;;;;;;;;5013201;28;20218;-71
2021/09/27 12:24:05;;;;;;;8.35;6.40;;;;;;;;;;5023403;28;20201;-71
2021/09/27 12:26:35;;;;;;;9.25;5.63;;;;;;;;;;5030279;28;20653;-71
2021/09/27 12:29:10;;;;;;;8.52;5.57;;;;;;;;;;5021353;28;20239;-75
2021/09/27 12:31:36;;;;;;;8.23;6.03;;;;;;;;;;5029224;28;20903;-72
2021/09/27 12:34:38;;;;;;;7.18;5.65;;;;;;;;;;5032101;28;20214;-71
2021/09/27 12:37:08;;;;;;;10.07;5.72;;;;;;;;;;5017793;28;20205;-70
2021/09/27 12:39:35;;;;;;;8.95;5.65;;;;;;;;;;5021404;28;20228;-70
2021/09/27 12:42:25;;;;;;;7.53;5.63;;;;;;;;;;4511648;28;10002864;-70
2021/09/27 12:45:02;;;;;;;7.30;5.40;;;;;;;;;;5017724;28;20197;-71
2021/09/27 12:47:28;;;;;;;7.78;5.57;;;;;;;;;;5023921;28;20608;-70
2021/09/27 12:49:56;;;;;;;8.43;5.30;;;;;;;;;;5023672;28;20194;-71
2021/09/27 12:52:36;;;;;;;8.13;5.32;;;;;;;;;;5019507;28;20193;-71
2021/09/27 12:55:07;;;;;;;9.77;4.90;;;;;;;;;;5022753;28;20680;-70
2021/09/27 12:57:40;;;;;;;7.00;4.80;;;;;;;;;;5015504;28;20267;-71
2021/09/27 13:00:26;;;;;;;8.70;4.97;;;;;;;;;;5025143;28;20189;-70
2021/09/27 13:02:52;;;;;;;6.35;4.72;;;;;;;;;;5016644;28;20198;-70
2021/09/27 13:05:23;;;;;;;7.07;4.22;;;;;;;;;;5022668;28;20212;-70
2021/09/27 13:07:52;;;;;;;7.25;4.90;;;;;;;;;;5012168;28;20253;-70
2021/09/27 13:10:44;;;;;;;6.60;4.70;;;;;;;;;;5024119;28;20185;-71
2021/09/27 13:13:23;;;;;;;10.98;4.65;;;;;;;;;;5020016;28;20189;-71
2021/09/27 13:15:59;;;;;;;6.78;4.10;;;;;;;;;;5030831;28;20193;-71
2021/09/27 13:18:37;;;;;;;11.40;4.68;;;;;;;;;;5020971;28;20215;-72
2021/09/27 13:21:27;;;;;;;8.00;4.22;;;;;;;;;;5030919;28;20225;-70
2021/09/27 13:24:00;;;;;;;7.03;3.85;;;;;;;;;;5021170;28;20592;-70
2021/09/27 13:27:01;;;;;;;5.80;3.80;;;;;;;;;;5028200;28;20722;-71
2021/09/27 13:29:43;;;;;;;8.25;4.30;;;;;;;;;;5029117;28;20728;-72
2021/09/27 13:32:17;;;;;;;6.28;4.20;;;;;;;;;;5027190;28;20188;-72
2021/09/27 13:34:45;;;;;;;7.38;4.10;;;;;;;;;;5027621;28;20197;-70
2021/09/27 13:37:22;;;;;;;8.23;4.32;;;;;;;;;;5028911;28;20208;-70
2021/09/27 13:39:49;;;;;;;5.35;3.67;;;;;;;;;;5018871;28;20185;-70
2021/09/27 13:42:46;;;;;;;8.60;3.80;;;;;;;;;;5026098;28;20217;-71
2021/09/27 13:45:15;;;;;;;6.80;3.67;;;;;;;;;;5018415;28;20201;-71
2021/09/27 13:47:41;;;;;;;5.43;3.80;;;;;;;;;;5028735;28;20197;-70
2021/09/27 13:50:07;;;;;;;5.88;3.92;;;;;;;;;;5019789;28;20202;-72
2021/09/27 13:52:40;;;;;;;5.82;3.50;;;;;;;;;;5027044;28;20605;-71
2021/09/27 13:55:06;;;;;;;7.40;3.58;;;;;;;;;;5019349;28;20630;-71
2021/09/27 13:57:33;;;;;;;6.30;3.22;;;;;;;;;;5026190;28;20232;-72
2021/09/27 13:59:59;;;;;;;4.25;3.45;;;;;;;;;;5017506;28;20186;-71
2021/09/27 14:02:24;;;;;;;6.20;3.50;;;;;;;;;;5028749;28;20201;-72
2021/09/27 14:04:49;;;;;;;4.85;3.17;;;;;;;;;;5017137;28;20201;-70
2021/09/27 14:07:15;;;;;;;10.80;3.22;;;;;;;;;;5026908;28;20694;-70
2021/09/27 14:09:40;;;;;;;5.90;3.30;;;;;;;;;;5020809;28;20189;-70
2021/09/27 14:12:06;;;;;;;7.75;2.92;;;;;;;;;;5028678;28;20208;-70
2021/09/27 14:14:31;;;;;;;4.78;2.65;;;;;;;;;;5019006;28;20245;-70
2021/09/27 14:16:57;;;;;;;5.68;2.83;;;;;;;;;;5026583;28;20193;-70
2021/09/27 14:19:22;;;;;;;6.00;2.67;;;;;;;;;;5027176;28;20198;-70
2021/09/27 14:21:48;;;;;;;4.82;2.80;;;;;;;;;;5017747;28;20209;-71
2021/09/27 14:24:13;;;;;;;6.15;2.65;;;;;;;;;;5027326;28;20257;-70
2021/09/27 14:26:39;;;;;;;4.10;3.10;;;;;;;;;;5018534;28;20224;-70
2021/09/27 14:29:05;;;;;;;3.85;2.63;;;;;;;;;;5025589;28;20189;-70
2021/09/27 14:31:30;;;;;;;5.95;2.80;;;;;;;;;;5022633;28;20181;-70
2021/09/27 14:33:55;;;;;;;5.03;2.60;;;;;;;;;;5028831;28;20210;-70
2021/09/27 14:36:21;;;;;;;3.83;2.45;;;;;;;;;;5021755;28;20185;-70
2021/09/27 14:38:48;;;;;;;5.55;2.78;;;;;;;;;;5027953;28;20301;-72
2021/09/27 14:41:15;;;;;;;5.03;2.40;;;;;;;;;;5020040;28;20218;-71
2021/09/27 14:43:42;;;;;;;3.80;2.53;;;;;;;;;;5027779;28;20201;-70
2021/09/27 14:46:08;;;;;;;5.13;2.63;;;;;;;;;;5021694;28;20188;-70
2021/09/27 14:48:34;;;;;;;4.50;2.72;;;;;;;;;;5027148;28;20197;-70
2021/09/27 14:50:59;;;;;;;3.00;2.30;;;;;;;;;;5028683;28;20260;-72
2021/09/27 14:53:26;;;;;;;5.07;2.20;;;;;;;;;;5020127;28;20181;-71
2021/09/27 14:55:53;;;;;;;2.85;2.30;;;;;;;;;;5027691;28;20291;-71
2021/09/27 14:58:23;;;;;;;4.18;2.45;;;;;;;;;;5021030;28;20210;-72
2021/09/27 15:00:51;;;;;;;2.92;2.40;;;;;;;;;;5029507;28;20664;-72
2021/09/27 15:03:17;;;;;;;3.28;2.25;;;;;;;;;;5019050;28;20219;-70
2021/09/27 15:05:43;;;;;;;3.72;2.20;;;;;;;;;;5026698;28;20635;-72
2021/09/27 15:08:09;;;;;;;3.83;2.47;;;;;;;;;;5019846;28;20230;-71
2021/09/27 15:10:35;;;;;;;7.22;2.20;;;;;;;;;;5025896;28;20196;-74